sensor_id;sensor_type;location;lat;lon;timestamp;pressure;altitude;pressure_sealevel;temperature;humidity
51603;BME280;37954;51.980;5.850;2024-01-11T00:02:45;102897.81;;;-3.09;61.99
51603;BME280;37954;51.980;5.850;2024-01-11T00:06:56;102893.28;;;-3.23;62.20
51603;BME280;37954;51.980;5.850;2024-01-11T00:11:08;102879.63;;;-3.29;62.34
51603;BME280;37954;51.980;5.850;2024-01-11T00:15:20;102903.03;;;-3.25;62.72
51603;BME280;37954;51.980;5.850;2024-01-11T00:19:31;102894.56;;;-3.30;62.91
51603;BME280;37954;51.980;5.850;2024-01-11T00:23:43;102898.13;;;-3.31;62.86
51603;BME280;37954;51.980;5.850;2024-01-11T00:27:55;102913.47;;;-3.23;62.78
51603;BME280;37954;51.980;5.850;2024-01-11T00:32:07;102910.56;;;-3.34;62.72
51603;BME280;37954;51.980;5.850;2024-01-11T00:36:19;102906.38;;;-3.38;62.88
51603;BME280;37954;51.980;5.850;2024-01-11T00:40:33;102883.47;;;-3.52;63.51
51603;BME280;37954;51.980;5.850;2024-01-11T00:44:45;102913.72;;;-3.45;63.40
51603;BME280;37954;51.980;5.850;2024-01-11T00:48:57;102899.22;;;-3.52;63.11
51603;BME280;37954;51.980;5.850;2024-01-11T00:53:09;102919.81;;;-3.44;63.34
51603;BME280;37954;51.980;5.850;2024-01-11T00:57:21;102916.53;;;-3.48;63.70
51603;BME280;37954;51.980;5.850;2024-01-11T01:01:33;102914.19;;;-3.54;63.77
51603;BME280;37954;51.980;5.850;2024-01-11T01:05:45;102911.09;;;-3.62;64.50
51603;BME280;37954;51.980;5.850;2024-01-11T01:09:57;102912.34;;;-3.69;64.45
51603;BME280;37954;51.980;5.850;2024-01-11T01:14:09;102923.50;;;-3.64;64.75
51603;BME280;37954;51.980;5.850;2024-01-11T01:18:21;102923.72;;;-3.69;65.00
51603;BME280;37954;51.980;5.850;2024-01-11T01:22:33;102907.63;;;-3.80;65.39
51603;BME280;37954;51.980;5.850;2024-01-11T01:26:44;102905.19;;;-3.83;65.32
51603;BME280;37954;51.980;5.850;2024-01-11T01:30:56;102905.53;;;-3.91;65.62
51603;BME280;37954;51.980;5.850;2024-01-11T01:35:08;102905.00;;;-3.97;65.53
51603;BME280;37954;51.980;5.850;2024-01-11T01:39:19;102938.53;;;-3.85;66.03
51603;BME280;37954;51.980;5.850;2024-01-11T01:43:31;102921.59;;;-3.97;66.22
51603;BME280;37954;51.980;5.850;2024-01-11T01:47:43;102915.75;;;-4.02;66.46
51603;BME280;37954;51.980;5.850;2024-01-11T01:51:55;102933.00;;;-3.98;66.52
51603;BME280;37954;51.980;5.850;2024-01-11T01:56:08;102933.34;;;-4.04;66.84
51603;BME280;37954;51.980;5.850;2024-01-11T02:00:20;102922.13;;;-4.07;67.19
51603;BME280;37954;51.980;5.850;2024-01-11T02:04:32;102926.81;;;-4.14;67.21
51603;BME280;37954;51.980;5.850;2024-01-11T02:08:44;102933.75;;;-4.13;67.59
51603;BME280;37954;51.980;5.850;2024-01-11T02:12:57;102936.31;;;-4.11;67.87
51603;BME280;37954;51.980;5.850;2024-01-11T02:17:08;102936.38;;;-4.13;68.27
51603;BME280;37954;51.980;5.850;2024-01-11T02:21:22;102935.06;;;-4.22;68.01
51603;BME280;37954;51.980;5.850;2024-01-11T02:25:34;102934.00;;;-4.17;68.58
51603;BME280;37954;51.980;5.850;2024-01-11T02:29:46;102933.66;;;-4.29;68.72
51603;BME280;37954;51.980;5.850;2024-01-11T02:33:58;102943.53;;;-4.34;68.87
51603;BME280;37954;51.980;5.850;2024-01-11T02:38:10;102936.72;;;-4.38;69.25
51603;BME280;37954;51.980;5.850;2024-01-11T02:42:22;102925.31;;;-4.37;69.95
51603;BME280;37954;51.980;5.850;2024-01-11T02:46:34;102928.00;;;-4.38;69.54
51603;BME280;37954;51.980;5.850;2024-01-11T02:50:45;102925.59;;;-4.43;69.82
51603;BME280;37954;51.980;5.850;2024-01-11T02:54:57;102928.78;;;-4.36;69.65
51603;BME280;37954;51.980;5.850;2024-01-11T02:59:09;102908.22;;;-4.45;69.78
51603;BME280;37954;51.980;5.850;2024-01-11T03:03:21;102914.09;;;-4.40;70.26
51603;BME280;37954;51.980;5.850;2024-01-11T03:07:33;102908.28;;;-4.47;69.97
51603;BME280;37954;51.980;5.850;2024-01-11T03:11:44;102912.75;;;-4.49;70.04
51603;BME280;37954;51.980;5.850;2024-01-11T03:15:56;102908.81;;;-4.58;70.50
51603;BME280;37954;51.980;5.850;2024-01-11T03:20:09;102936.34;;;-4.49;70.08
51603;BME280;37954;51.980;5.850;2024-01-11T03:24:20;102925.47;;;-4.59;70.45
51603;BME280;37954;51.980;5.850;2024-01-11T03:28:32;102941.31;;;-4.62;70.34
51603;BME280;37954;51.980;5.850;2024-01-11T03:32:44;102949.19;;;-4.62;71.11
51603;BME280;37954;51.980;5.850;2024-01-11T03:36:56;102954.31;;;-4.59;71.41
51603;BME280;37954;51.980;5.850;2024-01-11T03:41:09;102950.41;;;-4.69;71.86
51603;BME280;37954;51.980;5.850;2024-01-11T03:45:23;102941.78;;;-4.71;72.35
51603;BME280;37954;51.980;5.850;2024-01-11T03:49:35;102945.94;;;-4.67;72.38
51603;BME280;37954;51.980;5.850;2024-01-11T03:53:47;102926.25;;;-4.75;72.81
51603;BME280;37954;51.980;5.850;2024-01-11T03:57:58;102935.53;;;-4.68;72.37
51603;BME280;37954;51.980;5.850;2024-01-11T04:02:10;102929.56;;;-4.72;72.31
51603;BME280;37954;51.980;5.850;2024-01-11T04:06:22;102953.38;;;-4.76;72.83
51603;BME280;37954;51.980;5.850;2024-01-11T04:10:35;102953.44;;;-4.78;72.68
51603;BME280;37954;51.980;5.850;2024-01-11T04:14:47;102950.94;;;-4.81;72.98
51603;BME280;37954;51.980;5.850;2024-01-11T04:18:59;102956.19;;;-4.81;72.73
51603;BME280;37954;51.980;5.850;2024-01-11T04:23:11;102960.66;;;-4.83;73.19
51603;BME280;37954;51.980;5.850;2024-01-11T04:27:22;102964.84;;;-4.79;73.55
51603;BME280;37954;51.980;5.850;2024-01-11T04:31:34;102967.09;;;-4.90;73.93
51603;BME280;37954;51.980;5.850;2024-01-11T04:35:46;102964.03;;;-5.00;74.68
51603;BME280;37954;51.980;5.850;2024-01-11T04:39:58;102977.72;;;-4.93;75.23
51603;BME280;37954;51.980;5.850;2024-01-11T04:44:11;103000.38;;;-4.92;76.23
51603;BME280;37954;51.980;5.850;2024-01-11T04:48:23;102989.31;;;-4.99;76.13
51603;BME280;37954;51.980;5.850;2024-01-11T04:52:35;102985.06;;;-5.01;76.30
51603;BME280;37954;51.980;5.850;2024-01-11T04:56:47;102986.91;;;-5.03;77.13
51603;BME280;37954;51.980;5.850;2024-01-11T05:00:59;102980.75;;;-5.02;76.93
51603;BME280;37954;51.980;5.850;2024-01-11T05:05:11;103003.25;;;-4.98;77.52
51603;BME280;37954;51.980;5.850;2024-01-11T05:09:23;102985.28;;;-5.06;76.87
51603;BME280;37954;51.980;5.850;2024-01-11T05:13:34;103011.25;;;-5.01;76.94
51603;BME280;37954;51.980;5.850;2024-01-11T05:17:46;102997.47;;;-5.05;76.64
51603;BME280;37954;51.980;5.850;2024-01-11T05:21:58;102985.47;;;-5.10;76.85
51603;BME280;37954;51.980;5.850;2024-01-11T05:26:10;102993.31;;;-5.10;76.47
51603;BME280;37954;51.980;5.850;2024-01-11T05:30:22;102990.78;;;-5.12;76.92
51603;BME280;37954;51.980;5.850;2024-01-11T05:34:35;102983.75;;;-5.11;77.07
51603;BME280;37954;51.980;5.850;2024-01-11T05:38:47;102963.72;;;-5.12;76.92
51603;BME280;37954;51.980;5.850;2024-01-11T05:42:59;102937.47;;;-5.31;76.99
51603;BME280;37954;51.980;5.850;2024-01-11T05:47:10;102990.09;;;-5.17;77.24
51603;BME280;37954;51.980;5.850;2024-01-11T05:51:22;102973.69;;;-5.20;77.61
51603;BME280;37954;51.980;5.850;2024-01-11T05:55:33;102979.56;;;-5.15;77.46
51603;BME280;37954;51.980;5.850;2024-01-11T05:59:45;102991.63;;;-5.11;77.59
51603;BME280;37954;51.980;5.850;2024-01-11T06:03:57;102986.38;;;-5.11;77.92
51603;BME280;37954;51.980;5.850;2024-01-11T06:08:09;103004.78;;;-5.13;77.65
51603;BME280;37954;51.980;5.850;2024-01-11T06:12:21;102961.31;;;-5.37;77.09
51603;BME280;37954;51.980;5.850;2024-01-11T06:16:32;102993.53;;;-5.15;77.15
51603;BME280;37954;51.980;5.850;2024-01-11T06:20:44;103015.25;;;-5.13;77.50
51603;BME280;37954;51.980;5.850;2024-01-11T06:24:56;103039.94;;;-5.18;77.37
51603;BME280;37954;51.980;5.850;2024-01-11T06:29:08;103033.59;;;-5.33;77.32
51603;BME280;37954;51.980;5.850;2024-01-11T06:33:20;103052.78;;;-5.12;78.10
51603;BME280;37954;51.980;5.850;2024-01-11T06:37:32;103057.19;;;-5.13;78.33
51603;BME280;37954;51.980;5.850;2024-01-11T06:41:44;103056.44;;;-5.16;78.57
51603;BME280;37954;51.980;5.850;2024-01-11T06:45:56;103039.25;;;-5.22;78.20
51603;BME280;37954;51.980;5.850;2024-01-11T06:50:07;103062.28;;;-5.10;79.08
51603;BME280;37954;51.980;5.850;2024-01-11T06:54:20;103053.72;;;-5.13;78.41
51603;BME280;37954;51.980;5.850;2024-01-11T06:58:31;103079.59;;;-5.06;78.55
51603;BME280;37954;51.980;5.850;2024-01-11T07:02:43;103081.63;;;-5.12;78.70
51603;BME280;37954;51.980;5.850;2024-01-11T07:06:55;103056.91;;;-5.27;78.73
51603;BME280;37954;51.980;5.850;2024-01-11T07:11:06;103087.66;;;-5.10;79.34
51603;BME280;37954;51.980;5.850;2024-01-11T07:15:19;103091.97;;;-5.09;79.36
51603;BME280;37954;51.980;5.850;2024-01-11T07:19:30;103078.13;;;-5.13;79.10
51603;BME280;37954;51.980;5.850;2024-01-11T07:23:42;103072.00;;;-5.12;79.11
51603;BME280;37954;51.980;5.850;2024-01-11T07:27:54;103071.94;;;-5.10;78.96
51603;BME280;37954;51.980;5.850;2024-01-11T07:32:05;103047.09;;;-5.22;78.62
51603;BME280;37954;51.980;5.850;2024-01-11T07:36:17;103052.13;;;-5.17;78.59
51603;BME280;37954;51.980;5.850;2024-01-11T07:40:29;103059.34;;;-5.22;78.53
51603;BME280;37954;51.980;5.850;2024-01-11T07:44:42;103059.47;;;-5.26;78.45
51603;BME280;37954;51.980;5.850;2024-01-11T07:48:54;103061.19;;;-5.24;78.31
51603;BME280;37954;51.980;5.850;2024-01-11T07:53:06;103055.03;;;-5.23;78.52
51603;BME280;37954;51.980;5.850;2024-01-11T07:57:18;103050.53;;;-5.20;78.76
51603;BME280;37954;51.980;5.850;2024-01-11T08:01:29;103052.28;;;-5.20;78.65
51603;BME280;37954;51.980;5.850;2024-01-11T08:05:41;103046.38;;;-5.26;78.52
51603;BME280;37954;51.980;5.850;2024-01-11T08:09:55;103061.69;;;-5.16;79.07
51603;BME280;37954;51.980;5.850;2024-01-11T08:14:07;103072.22;;;-5.18;78.87
51603;BME280;37954;51.980;5.850;2024-01-11T08:18:19;103030.84;;;-5.30;78.78
51603;BME280;37954;51.980;5.850;2024-01-11T08:22:30;103036.56;;;-5.20;78.87
51603;BME280;37954;51.980;5.850;2024-01-11T08:26:45;103059.22;;;-4.99;79.59
51603;BME280;37954;51.980;5.850;2024-01-11T08:30:57;103066.81;;;-4.93;79.36
51603;BME280;37954;51.980;5.850;2024-01-11T08:35:09;103069.13;;;-4.85;79.23
51603;BME280;37954;51.980;5.850;2024-01-11T08:39:21;103074.03;;;-4.78;79.64
51603;BME280;37954;51.980;5.850;2024-01-11T08:43:34;103052.69;;;-4.89;79.79
51603;BME280;37954;51.980;5.850;2024-01-11T08:47:46;103086.41;;;-4.61;79.95
51603;BME280;37954;51.980;5.850;2024-01-11T08:51:58;103103.34;;;-4.49;80.12
51603;BME280;37954;51.980;5.850;2024-01-11T08:56:10;103074.66;;;-4.52;80.04
51603;BME280;37954;51.980;5.850;2024-01-11T09:00:22;103098.00;;;-4.28;80.05
51603;BME280;37954;51.980;5.850;2024-01-11T09:04:33;103117.69;;;-4.17;79.94
51603;BME280;37954;51.980;5.850;2024-01-11T09:08:45;103089.22;;;-4.27;79.54
51603;BME280;37954;51.980;5.850;2024-01-11T09:13:03;103133.09;;;-3.91;79.87
51603;BME280;37954;51.980;5.850;2024-01-11T09:17:17;103127.97;;;-3.75;79.57
51603;BME280;37954;51.980;5.850;2024-01-11T09:21:29;103128.81;;;-3.56;79.73
51603;BME280;37954;51.980;5.850;2024-01-11T09:25:40;103126.72;;;-3.31;79.67
51603;BME280;37954;51.980;5.850;2024-01-11T09:29:52;103120.03;;;-3.02;79.15
51603;BME280;37954;51.980;5.850;2024-01-11T09:34:07;103133.97;;;-2.32;79.26
51603;BME280;37954;51.980;5.850;2024-01-11T09:38:19;103139.09;;;-1.81;78.39
51603;BME280;37954;51.980;5.850;2024-01-11T09:42:31;103159.06;;;-1.29;77.53
51603;BME280;37954;51.980;5.850;2024-01-11T09:46:43;103150.88;;;-1.09;75.67
51603;BME280;37954;51.980;5.850;2024-01-11T09:50:56;103147.00;;;-1.03;74.12
51603;BME280;37954;51.980;5.850;2024-01-11T09:55:09;103162.50;;;-0.97;73.45
51603;BME280;37954;51.980;5.850;2024-01-11T09:59:21;103146.41;;;-0.93;72.93
51603;BME280;37954;51.980;5.850;2024-01-11T10:03:35;103165.31;;;0.02;73.47
51603;BME280;37954;51.980;5.850;2024-01-11T10:07:48;103167.25;;;0.82;71.54
51603;BME280;37954;51.980;5.850;2024-01-11T10:12:00;103153.88;;;1.63;71.29
51603;BME280;37954;51.980;5.850;2024-01-11T10:16:12;103173.56;;;2.22;69.03
51603;BME280;37954;51.980;5.850;2024-01-11T10:20:27;103175.88;;;2.63;67.65
51603;BME280;37954;51.980;5.850;2024-01-11T10:24:42;103182.91;;;2.88;65.44
51603;BME280;37954;51.980;5.850;2024-01-11T10:28:59;103184.31;;;2.81;64.30
51603;BME280;37954;51.980;5.850;2024-01-11T10:33:11;103160.16;;;2.73;64.47
51603;BME280;37954;51.980;5.850;2024-01-11T10:37:23;103146.59;;;2.89;64.26
51603;BME280;37954;51.980;5.850;2024-01-11T10:41:40;103169.13;;;2.83;63.85
51603;BME280;37954;51.980;5.850;2024-01-11T10:45:55;103169.97;;;2.47;64.46
51603;BME280;37954;51.980;5.850;2024-01-11T10:50:10;103171.13;;;2.19;64.97
51603;BME280;37954;51.980;5.850;2024-01-11T10:54:23;103125.47;;;1.78;66.48
51603;BME280;37954;51.980;5.850;2024-01-11T10:58:35;103181.94;;;2.16;67.99
51603;BME280;37954;51.980;5.850;2024-01-11T11:02:47;103177.72;;;2.01;69.16
51603;BME280;37954;51.980;5.850;2024-01-11T11:07:02;103177.25;;;1.56;70.36
51603;BME280;37954;51.980;5.850;2024-01-11T11:11:13;103197.13;;;1.24;71.11
51603;BME280;37954;51.980;5.850;2024-01-11T11:15:28;103206.69;;;0.99;72.61
51603;BME280;37954;51.980;5.850;2024-01-11T11:19:40;103204.94;;;0.86;73.78
51603;BME280;37954;51.980;5.850;2024-01-11T11:29:34;103165.13;;;0.60;75.41
51603;BME280;37954;51.980;5.850;2024-01-11T11:33:49;103183.50;;;0.76;77.01
51603;BME280;37954;51.980;5.850;2024-01-11T11:38:01;103181.72;;;0.77;77.96
51603;BME280;37954;51.980;5.850;2024-01-11T11:42:14;103177.94;;;0.81;78.22
51603;BME280;37954;51.980;5.850;2024-01-11T11:46:26;103173.81;;;0.89;78.55
51603;BME280;37954;51.980;5.850;2024-01-11T11:50:39;103177.78;;;0.96;78.95
51603;BME280;37954;51.980;5.850;2024-01-11T11:54:51;103162.75;;;0.97;79.01
51603;BME280;37954;51.980;5.850;2024-01-11T11:59:03;103141.97;;;0.91;79.00
51603;BME280;37954;51.980;5.850;2024-01-11T12:03:16;103153.56;;;1.02;79.98
51603;BME280;37954;51.980;5.850;2024-01-11T12:07:28;103110.66;;;0.85;79.41
51603;BME280;37954;51.980;5.850;2024-01-11T12:11:41;103111.81;;;0.93;80.33
51603;BME280;37954;51.980;5.850;2024-01-11T12:15:53;103132.13;;;1.20;80.64
51603;BME280;37954;51.980;5.850;2024-01-11T12:53:09;103106.16;;;0.73;80.90
51603;BME280;37954;51.980;5.850;2024-01-11T12:57:24;103079.75;;;0.85;80.96
51603;BME280;37954;51.980;5.850;2024-01-11T13:01:37;103083.81;;;1.03;81.47
51603;BME280;37954;51.980;5.850;2024-01-11T13:05:51;103110.41;;;1.40;82.11
51603;BME280;37954;51.980;5.850;2024-01-11T13:10:03;103070.69;;;1.40;82.89
51603;BME280;37954;51.980;5.850;2024-01-11T13:14:15;103090.72;;;1.69;83.69
51603;BME280;37954;51.980;5.850;2024-01-11T13:18:30;103088.78;;;1.84;84.30
51603;BME280;37954;51.980;5.850;2024-01-11T13:22:44;103084.50;;;1.94;84.10
51603;BME280;37954;51.980;5.850;2024-01-11T13:26:56;103061.44;;;1.84;83.97
51603;BME280;37954;51.980;5.850;2024-01-11T13:31:08;103075.72;;;2.06;84.56
51603;BME280;37954;51.980;5.850;2024-01-11T13:35:21;103080.56;;;2.13;84.14
51603;BME280;37954;51.980;5.850;2024-01-11T13:39:33;103075.88;;;2.16;84.15
51603;BME280;37954;51.980;5.850;2024-01-11T13:43:44;103080.00;;;2.20;84.53
51603;BME280;37954;51.980;5.850;2024-01-11T13:47:56;103065.28;;;2.16;84.56
51603;BME280;37954;51.980;5.850;2024-01-11T13:52:08;103059.75;;;2.19;85.31
51603;BME280;37954;51.980;5.850;2024-01-11T13:56:20;103064.09;;;2.20;84.92
51603;BME280;37954;51.980;5.850;2024-01-11T14:00:34;103060.97;;;2.26;84.46
51603;BME280;37954;51.980;5.850;2024-01-11T14:04:46;103070.75;;;2.26;84.93
51603;BME280;37954;51.980;5.850;2024-01-11T14:08:57;103070.63;;;2.27;84.44
51603;BME280;37954;51.980;5.850;2024-01-11T14:13:09;103073.53;;;2.24;84.95
51603;BME280;37954;51.980;5.850;2024-01-11T14:17:21;103074.72;;;2.20;84.51
51603;BME280;37954;51.980;5.850;2024-01-11T14:21:32;103057.75;;;2.10;84.40
51603;BME280;37954;51.980;5.850;2024-01-11T14:25:44;103068.78;;;2.17;84.82
51603;BME280;37954;51.980;5.850;2024-01-11T14:29:56;103048.47;;;2.04;85.20
51603;BME280;37954;51.980;5.850;2024-01-11T14:34:09;103069.09;;;2.12;85.15
51603;BME280;37954;51.980;5.850;2024-01-11T14:38:22;103051.00;;;2.06;85.57
51603;BME280;37954;51.980;5.850;2024-01-11T14:42:35;103044.13;;;2.03;85.50
51603;BME280;37954;51.980;5.850;2024-01-11T14:46:46;103039.97;;;1.99;85.26
51603;BME280;37954;51.980;5.850;2024-01-11T14:50:58;103048.56;;;2.03;85.68
51603;BME280;37954;51.980;5.850;2024-01-11T14:55:10;103057.75;;;2.10;86.23
51603;BME280;37954;51.980;5.850;2024-01-11T14:59:22;103039.03;;;2.00;86.29
51603;BME280;37954;51.980;5.850;2024-01-11T15:03:34;103051.38;;;2.13;86.47
51603;BME280;37954;51.980;5.850;2024-01-11T15:07:46;103022.94;;;1.91;86.32
51603;BME280;37954;51.980;5.850;2024-01-11T15:11:57;103035.94;;;2.06;86.87
51603;BME280;37954;51.980;5.850;2024-01-11T15:16:09;103010.31;;;1.94;86.68
51603;BME280;37954;51.980;5.850;2024-01-11T15:20:21;103037.13;;;2.02;87.50
51603;BME280;37954;51.980;5.850;2024-01-11T15:24:33;103058.84;;;2.07;87.24
51603;BME280;37954;51.980;5.850;2024-01-11T15:28:46;103056.53;;;2.03;86.97
51603;BME280;37954;51.980;5.850;2024-01-11T15:33:01;103045.59;;;1.95;87.10
51603;BME280;37954;51.980;5.850;2024-01-11T15:37:13;103059.59;;;1.97;87.01
51603;BME280;37954;51.980;5.850;2024-01-11T15:41:25;103053.78;;;1.92;87.79
51603;BME280;37954;51.980;5.850;2024-01-11T15:45:36;103058.38;;;1.90;87.38
51603;BME280;37954;51.980;5.850;2024-01-11T15:49:48;103015.69;;;1.69;86.97
51603;BME280;37954;51.980;5.850;2024-01-11T15:54:00;103061.13;;;1.88;87.45
51603;BME280;37954;51.980;5.850;2024-01-11T15:58:13;103050.84;;;1.84;87.75
51603;BME280;37954;51.980;5.850;2024-01-11T16:02:25;103034.88;;;1.72;88.18
51603;BME280;37954;51.980;5.850;2024-01-11T16:06:36;103023.75;;;1.67;88.32
51603;BME280;37954;51.980;5.850;2024-01-11T16:10:48;103022.47;;;1.73;87.84
51603;BME280;37954;51.980;5.850;2024-01-11T16:15:00;102994.06;;;1.62;88.01
51603;BME280;37954;51.980;5.850;2024-01-11T16:19:12;103037.81;;;1.81;88.51
51603;BME280;37954;51.980;5.850;2024-01-11T16:23:23;103040.44;;;1.81;88.16
51603;BME280;37954;51.980;5.850;2024-01-11T16:28:01;103047.78;;;1.77;88.70
51603;BME280;37954;51.980;5.850;2024-01-11T16:32:12;103045.78;;;1.68;88.91
51603;BME280;37954;51.980;5.850;2024-01-11T16:36:26;103039.63;;;1.67;89.55
51603;BME280;37954;51.980;5.850;2024-01-11T16:40:38;103050.88;;;1.71;89.85
51603;BME280;37954;51.980;5.850;2024-01-11T16:44:50;103046.31;;;1.73;89.95
51603;BME280;37954;51.980;5.850;2024-01-11T16:49:01;103048.22;;;1.71;90.34
51603;BME280;37954;51.980;5.850;2024-01-11T16:53:14;103046.19;;;1.74;90.16
51603;BME280;37954;51.980;5.850;2024-01-11T16:57:26;103046.81;;;1.78;90.46
51603;BME280;37954;51.980;5.850;2024-01-11T17:01:38;103044.28;;;1.77;91.09
51603;BME280;37954;51.980;5.850;2024-01-11T17:05:49;103035.16;;;1.81;91.31
51603;BME280;37954;51.980;5.850;2024-01-11T17:10:01;103018.63;;;1.77;91.75
51603;BME280;37954;51.980;5.850;2024-01-11T17:14:13;103025.63;;;1.78;91.79
51603;BME280;37954;51.980;5.850;2024-01-11T17:18:25;103027.41;;;1.78;92.73
51603;BME280;37954;51.980;5.850;2024-01-11T17:22:37;103028.91;;;1.82;92.83
51603;BME280;37954;51.980;5.850;2024-01-11T17:26:48;103021.91;;;1.81;92.97
51603;BME280;37954;51.980;5.850;2024-01-11T17:31:00;103027.09;;;1.82;92.76
51603;BME280;37954;51.980;5.850;2024-01-11T17:35:12;103025.28;;;1.83;92.33
51603;BME280;37954;51.980;5.850;2024-01-11T17:39:25;103024.34;;;1.84;92.74
51603;BME280;37954;51.980;5.850;2024-01-11T17:43:37;103035.03;;;1.82;92.43
51603;BME280;37954;51.980;5.850;2024-01-11T17:47:48;103043.41;;;1.89;92.81
51603;BME280;37954;51.980;5.850;2024-01-11T17:52:00;103047.34;;;1.83;93.15
51603;BME280;37954;51.980;5.850;2024-01-11T17:56:12;103049.78;;;1.86;93.02
51603;BME280;37954;51.980;5.850;2024-01-11T18:00:23;103040.03;;;1.87;93.14
51603;BME280;37954;51.980;5.850;2024-01-11T18:04:35;103042.22;;;1.93;93.38
51603;BME280;37954;51.980;5.850;2024-01-11T18:08:47;103043.31;;;1.90;93.13
51603;BME280;37954;51.980;5.850;2024-01-11T18:13:00;103038.81;;;1.91;92.82
51603;BME280;37954;51.980;5.850;2024-01-11T18:17:37;103033.09;;;1.97;92.86
51603;BME280;37954;51.980;5.850;2024-01-11T18:21:52;103031.72;;;1.91;93.32
51603;BME280;37954;51.980;5.850;2024-01-11T18:26:03;103037.88;;;1.92;93.61
51603;BME280;37954;51.980;5.850;2024-01-11T18:30:15;103031.50;;;1.94;93.73
51603;BME280;37954;51.980;5.850;2024-01-11T18:34:27;103030.66;;;1.94;93.38
51603;BME280;37954;51.980;5.850;2024-01-11T18:38:38;103002.41;;;1.82;93.20
51603;BME280;37954;51.980;5.850;2024-01-11T18:42:50;103019.22;;;1.93;93.61
51603;BME280;37954;51.980;5.850;2024-01-11T18:47:02;103002.19;;;1.85;93.50
51603;BME280;37954;51.980;5.850;2024-01-11T18:51:14;102997.44;;;1.77;93.94
51603;BME280;37954;51.980;5.850;2024-01-11T18:55:25;103007.69;;;1.82;93.85
51603;BME280;37954;51.980;5.850;2024-01-11T18:59:37;103026.41;;;1.91;94.22
51603;BME280;37954;51.980;5.850;2024-01-11T19:03:49;103004.72;;;1.86;93.94
51603;BME280;37954;51.980;5.850;2024-01-11T19:08:01;103014.88;;;1.92;94.61
51603;BME280;37954;51.980;5.850;2024-01-11T19:12:13;103027.06;;;1.95;94.53
51603;BME280;37954;51.980;5.850;2024-01-11T19:16:24;102997.00;;;1.83;94.59
51603;BME280;37954;51.980;5.850;2024-01-11T19:20:36;103027.38;;;2.03;94.61
51603;BME280;37954;51.980;5.850;2024-01-11T19:24:48;103022.50;;;1.97;94.63
51603;BME280;37954;51.980;5.850;2024-01-11T19:29:00;103034.16;;;2.07;94.88
51603;BME280;37954;51.980;5.850;2024-01-11T19:33:12;103014.53;;;1.97;95.36
51603;BME280;37954;51.980;5.850;2024-01-11T19:37:25;103014.31;;;2.00;95.09
51603;BME280;37954;51.980;5.850;2024-01-11T19:41:38;103035.81;;;2.08;95.10
51603;BME280;37954;51.980;5.850;2024-01-11T19:45:50;103017.41;;;1.94;95.21
51603;BME280;37954;51.980;5.850;2024-01-11T19:50:03;103022.38;;;1.98;95.09
51603;BME280;37954;51.980;5.850;2024-01-11T19:54:15;103050.09;;;2.18;95.10
51603;BME280;37954;51.980;5.850;2024-01-11T19:58:27;103013.47;;;1.99;95.57
51603;BME280;37954;51.980;5.850;2024-01-11T20:02:38;103049.25;;;2.18;95.57
51603;BME280;37954;51.980;5.850;2024-01-11T20:06:50;103009.75;;;2.02;95.55
51603;BME280;37954;51.980;5.850;2024-01-11T20:11:02;103039.19;;;2.23;95.72
51603;BME280;37954;51.980;5.850;2024-01-11T20:15:15;103016.53;;;2.06;95.74
51603;BME280;37954;51.980;5.850;2024-01-11T20:19:26;103048.47;;;2.28;95.93
51603;BME280;37954;51.980;5.850;2024-01-11T20:23:40;103060.53;;;2.32;96.26
51603;BME280;37954;51.980;5.850;2024-01-11T20:27:55;103063.19;;;2.32;95.79
51603;BME280;37954;51.980;5.850;2024-01-11T20:32:07;103072.63;;;2.36;96.00
51603;BME280;37954;51.980;5.850;2024-01-11T20:36:18;103065.97;;;2.31;96.16
51603;BME280;37954;51.980;5.850;2024-01-11T20:40:30;103058.31;;;2.39;95.80
51603;BME280;37954;51.980;5.850;2024-01-11T20:44:42;103071.34;;;2.42;95.84
51603;BME280;37954;51.980;5.850;2024-01-11T20:48:53;103054.91;;;2.37;95.70
51603;BME280;37954;51.980;5.850;2024-01-11T20:53:05;103062.28;;;2.44;95.95
51603;BME280;37954;51.980;5.850;2024-01-11T20:57:17;103065.53;;;2.37;95.92
51603;BME280;37954;51.980;5.850;2024-01-11T21:01:28;103062.53;;;2.41;95.81
51603;BME280;37954;51.980;5.850;2024-01-11T21:05:43;103059.16;;;2.39;95.85
51603;BME280;37954;51.980;5.850;2024-01-11T21:09:58;103067.59;;;2.44;95.65
51603;BME280;37954;51.980;5.850;2024-01-11T21:14:10;103072.91;;;2.44;95.49
51603;BME280;37954;51.980;5.850;2024-01-11T21:18:22;103064.72;;;2.48;95.87
51603;BME280;37954;51.980;5.850;2024-01-11T21:22:33;103063.88;;;2.47;95.79
51603;BME280;37954;51.980;5.850;2024-01-11T21:26:45;103077.88;;;2.49;95.87
51603;BME280;37954;51.980;5.850;2024-01-11T21:30:57;103071.09;;;2.45;96.03
51603;BME280;37954;51.980;5.850;2024-01-11T21:35:09;103044.94;;;2.40;95.79
51603;BME280;37954;51.980;5.850;2024-01-11T21:39:20;103066.31;;;2.50;95.59
51603;BME280;37954;51.980;5.850;2024-01-11T21:43:32;103065.13;;;2.54;95.60
51603;BME280;37954;51.980;5.850;2024-01-11T21:47:45;103056.66;;;2.49;95.46
51603;BME280;37954;51.980;5.850;2024-01-11T21:52:00;103054.34;;;2.44;95.18
51603;BME280;37954;51.980;5.850;2024-01-11T21:56:12;103065.56;;;2.48;95.30
51603;BME280;37954;51.980;5.850;2024-01-11T22:00:24;103068.00;;;2.51;95.40
51603;BME280;37954;51.980;5.850;2024-01-11T22:04:36;103057.72;;;2.47;95.45
51603;BME280;37954;51.980;5.850;2024-01-11T22:08:47;103041.69;;;2.48;95.65
51603;BME280;37954;51.980;5.850;2024-01-11T22:13:00;103054.84;;;2.50;95.80
51603;BME280;37954;51.980;5.850;2024-01-11T22:17:11;103050.16;;;2.53;95.54
51603;BME280;37954;51.980;5.850;2024-01-11T22:21:24;103069.97;;;2.60;95.48
51603;BME280;37954;51.980;5.850;2024-01-11T22:25:35;103047.63;;;2.52;95.34
51603;BME280;37954;51.980;5.850;2024-01-11T22:29:47;103042.03;;;2.43;95.38
51603;BME280;37954;51.980;5.850;2024-01-11T22:34:00;103061.13;;;2.49;95.51
51603;BME280;37954;51.980;5.850;2024-01-11T22:38:12;103053.38;;;2.45;95.42
51603;BME280;37954;51.980;5.850;2024-01-11T22:42:23;103070.25;;;2.44;95.32
51603;BME280;37954;51.980;5.850;2024-01-11T22:46:35;103068.44;;;2.45;95.53